createdAt,value
2018-09-15T00:01:26.552Z,3.07
2018-09-15T00:03:54.611Z,3.20
2018-09-15T00:06:22.620Z,3.13
2018-09-15T00:08:50.651Z,3.40
2018-09-15T00:11:18.707Z,3.20
2018-09-15T00:13:46.734Z,3.10
2018-09-15T00:16:14.746Z,3.33
2018-09-15T00:18:43.014Z,2.60
2018-09-15T00:21:11.054Z,2.97
2018-09-15T00:23:39.106Z,2.67
2018-09-15T00:26:07.500Z,3.30
2018-09-15T00:28:35.509Z,3.30
2018-09-15T00:31:03.568Z,3.20
2018-09-15T00:33:31.679Z,2.63
2018-09-15T00:35:59.740Z,3.20
2018-09-15T00:38:27.758Z,3.27
2018-09-15T00:40:55.978Z,2.93
2018-09-15T00:43:24.069Z,3.20
2018-09-15T00:45:52.106Z,3.00
2018-09-15T00:48:20.160Z,3.27
2018-09-15T00:50:48.190Z,3.07
2018-09-15T00:53:16.285Z,3.27
2018-09-15T00:55:44.298Z,3.47
2018-09-15T00:58:12.330Z,2.70
2018-09-15T01:00:40.396Z,3.40
2018-09-15T01:03:08.433Z,3.23
2018-09-15T01:05:36.460Z,2.77
2018-09-15T01:08:04.519Z,3.60
2018-09-15T01:10:32.576Z,3.43
2018-09-15T01:13:00.780Z,2.90
2018-09-15T01:15:28.808Z,3.13
2018-09-15T01:17:56.840Z,2.67
2018-09-15T01:20:24.892Z,2.73
2018-09-15T01:22:52.936Z,2.60
2018-09-15T01:25:21.058Z,2.80
2018-09-15T01:27:49.200Z,2.70
2018-09-15T01:30:17.249Z,3.13
2018-09-15T01:32:45.288Z,2.87
2018-09-15T01:35:13.336Z,2.30
2018-09-15T01:37:41.376Z,2.70
2018-09-15T01:40:09.438Z,2.60
2018-09-15T01:42:37.449Z,2.43
2018-09-15T01:45:05.524Z,2.30
2018-09-15T01:47:33.555Z,2.53
2018-09-15T01:50:01.661Z,2.20
2018-09-15T01:52:29.728Z,2.00
2018-09-15T01:54:57.847Z,2.40
2018-09-15T01:57:25.899Z,2.37
2018-09-15T01:59:53.925Z,1.90
2018-09-15T02:02:22.048Z,2.13
2018-09-15T02:04:50.089Z,1.83
2018-09-15T02:07:18.136Z,1.77
2018-09-15T02:09:46.217Z,1.90
2018-09-15T02:12:14.246Z,1.83
2018-09-15T02:14:42.276Z,1.70
2018-09-15T02:17:10.302Z,1.90
2018-09-15T02:19:38.340Z,1.47
2018-09-15T02:22:06.445Z,1.50
2018-09-15T02:24:34.460Z,1.90
2018-09-15T02:27:02.637Z,1.50
2018-09-15T02:29:30.743Z,1.50
2018-09-15T02:31:58.795Z,2.00
2018-09-15T02:34:26.844Z,1.60
2018-09-15T02:36:54.856Z,1.60
2018-09-15T02:39:22.898Z,1.30
2018-09-15T02:41:50.926Z,1.57
2018-09-15T02:44:18.957Z,2.70
2018-09-15T02:46:46.991Z,1.73
2018-09-15T02:49:15.049Z,2.07
2018-09-15T02:51:43.081Z,1.53
2018-09-15T02:54:11.101Z,2.00
2018-09-15T02:56:39.124Z,1.77
2018-09-15T02:59:07.143Z,1.20
2018-09-15T03:01:35.179Z,1.93
2018-09-15T03:04:03.637Z,1.60
2018-09-15T03:06:31.833Z,1.57
2018-09-15T03:09:00.154Z,2.23
2018-09-15T03:11:28.196Z,1.40
2018-09-15T03:13:56.243Z,1.80
2018-09-15T03:16:24.271Z,1.53
2018-09-15T03:18:52.294Z,1.60
2018-09-15T03:21:20.312Z,1.33
2018-09-15T03:23:48.499Z,1.73
2018-09-15T03:26:16.524Z,1.70
2018-09-15T03:28:44.556Z,1.60
2018-09-15T03:31:12.608Z,1.70
2018-09-15T03:33:40.631Z,1.60
2018-09-15T03:36:08.705Z,1.73
2018-09-15T03:38:36.775Z,1.83
2018-09-15T03:41:04.999Z,1.57
2018-09-15T03:43:33.194Z,2.00
2018-09-15T03:46:01.252Z,1.57
2018-09-15T03:48:29.316Z,1.53
2018-09-15T03:50:57.347Z,1.60
2018-09-15T03:53:25.377Z,1.40
2018-09-15T03:55:53.380Z,1.90
2018-09-15T03:58:21.469Z,1.73
2018-09-15T04:00:49.540Z,2.07
2018-09-15T04:03:17.564Z,1.80
2018-09-15T04:05:45.608Z,1.57
2018-09-15T04:08:13.651Z,1.90
2018-09-15T04:10:41.795Z,1.50
2018-09-15T04:13:09.863Z,1.70
2018-09-15T04:15:37.900Z,1.50
2018-09-15T04:18:05.972Z,1.50
2018-09-15T04:20:34.005Z,1.53
2018-09-15T04:23:02.053Z,1.87
2018-09-15T04:25:30.118Z,2.07
2018-09-15T04:27:58.113Z,1.50
2018-09-15T04:30:26.148Z,2.63
2018-09-15T04:32:54.174Z,1.70
2018-09-15T04:35:22.245Z,1.50
2018-09-15T04:37:50.321Z,2.00
2018-09-15T04:40:18.396Z,1.77
2018-09-15T04:42:46.460Z,2.03
2018-09-15T04:45:14.513Z,1.80
2018-09-15T04:47:42.785Z,1.70
2018-09-15T04:50:10.874Z,1.57
2018-09-15T04:52:38.937Z,1.87
2018-09-15T04:55:06.924Z,2.10
2018-09-15T04:57:34.993Z,1.87
2018-09-15T05:00:03.077Z,1.77
2018-09-15T05:02:31.124Z,2.10
2018-09-15T05:04:59.205Z,1.90
2018-09-15T05:07:27.282Z,1.93
2018-09-15T05:09:55.298Z,1.93
2018-09-15T05:12:23.412Z,1.67
2018-09-15T05:14:51.435Z,2.80
2018-09-15T05:17:19.453Z,2.23
2018-09-15T05:19:47.546Z,1.93
2018-09-15T05:22:15.551Z,2.30
2018-09-15T05:24:43.572Z,1.77
2018-09-15T05:27:11.613Z,2.00
2018-09-15T05:29:39.654Z,2.50
2018-09-15T05:32:07.713Z,1.80
2018-09-15T05:34:35.768Z,1.90
2018-09-15T05:37:03.832Z,1.93
2018-09-15T05:39:32.124Z,2.10
2018-09-15T05:42:00.424Z,1.80
2018-09-15T05:44:28.501Z,2.53
2018-09-15T05:46:56.513Z,2.13
2018-09-15T05:49:24.544Z,1.77
2018-09-15T05:51:52.580Z,2.03
2018-09-15T05:54:20.614Z,1.60
2018-09-15T05:56:48.658Z,2.07
2018-09-15T05:59:16.728Z,2.47
2018-09-15T06:01:44.831Z,1.83
2018-09-15T06:04:12.882Z,2.33
2018-09-15T06:06:41.006Z,2.73
2018-09-15T06:09:09.005Z,2.10
2018-09-15T06:11:37.070Z,1.80
2018-09-15T06:14:05.205Z,2.30
2018-09-15T06:16:33.365Z,2.80
2018-09-15T06:19:01.420Z,2.60
2018-09-15T06:21:29.477Z,2.87
2018-09-15T06:23:57.475Z,2.43
2018-09-15T06:26:25.510Z,2.93
2018-09-15T06:28:53.641Z,3.20
2018-09-15T06:31:21.643Z,3.10
2018-09-15T06:33:49.664Z,3.13
2018-09-15T06:36:17.789Z,3.57
2018-09-15T06:38:45.731Z,2.93
2018-09-15T06:41:13.863Z,2.93
2018-09-15T06:43:41.983Z,2.80
2018-09-15T06:46:10.053Z,2.70
2018-09-15T06:48:38.060Z,3.37
2018-09-15T06:51:06.118Z,3.87
2018-09-15T06:53:34.160Z,3.83
2018-09-15T06:56:02.291Z,3.50
2018-09-15T06:58:30.385Z,3.53
2018-09-15T07:00:58.523Z,4.77
2018-09-15T07:03:26.513Z,3.33
2018-09-15T07:05:54.578Z,3.40
2018-09-15T07:08:22.842Z,3.17
2018-09-15T07:10:50.863Z,2.97
2018-09-15T07:13:19.008Z,3.30
2018-09-15T07:15:47.049Z,5.13
2018-09-15T07:18:15.131Z,3.70
2018-09-15T07:20:43.147Z,3.70
2018-09-15T07:23:11.194Z,4.13
2018-09-15T07:25:39.231Z,3.97
2018-09-15T07:28:07.275Z,3.97
2018-09-15T07:30:35.348Z,3.90
2018-09-15T07:33:03.586Z,4.20
2018-09-15T07:35:31.760Z,4.37
2018-09-15T07:37:59.827Z,4.90
2018-09-15T07:40:27.891Z,3.50
2018-09-15T07:42:55.949Z,3.77
2018-09-15T07:45:24.011Z,3.90
2018-09-15T07:47:52.240Z,3.53
2018-09-15T07:50:20.325Z,4.30
2018-09-15T07:52:48.364Z,3.67
2018-09-15T07:55:16.516Z,3.70
2018-09-15T07:57:44.743Z,3.10
2018-09-15T08:00:12.675Z,3.73
2018-09-15T08:02:40.884Z,4.40
2018-09-15T08:05:08.954Z,3.97
2018-09-15T08:07:37.012Z,4.50
2018-09-15T08:10:05.198Z,3.37
2018-09-15T08:12:33.297Z,4.10
2018-09-15T08:15:01.586Z,4.03
2018-09-15T08:17:29.751Z,3.70
2018-09-15T08:19:57.831Z,3.97
2018-09-15T08:22:25.955Z,3.63
2018-09-15T08:24:54.183Z,4.13
2018-09-15T08:27:22.353Z,3.33
2018-09-15T08:29:50.420Z,5.23
2018-09-15T08:32:18.551Z,4.37
2018-09-15T08:34:46.754Z,4.07
2018-09-15T08:37:14.868Z,4.30
2018-09-15T08:39:42.913Z,3.43
2018-09-15T08:42:11.046Z,3.60
2018-09-15T08:44:39.079Z,3.87
2018-09-15T08:47:07.178Z,4.57
2018-09-15T08:49:35.230Z,3.40
2018-09-15T08:52:03.337Z,4.50
2018-09-15T08:54:31.412Z,4.40
2018-09-15T08:56:59.468Z,4.40
2018-09-15T08:59:27.707Z,5.00
2018-09-15T09:01:55.763Z,4.97
2018-09-15T09:04:23.797Z,3.20
2018-09-15T09:06:51.852Z,3.57
2018-09-15T09:09:19.987Z,3.80
2018-09-15T09:11:48.072Z,4.17
2018-09-15T09:14:16.156Z,3.40
2018-09-15T09:16:44.222Z,3.77
2018-09-15T09:19:12.273Z,4.03
2018-09-15T09:21:40.349Z,4.00
2018-09-15T09:24:08.397Z,3.30
2018-09-15T09:26:36.511Z,4.00
2018-09-15T09:29:04.546Z,3.83
2018-09-15T09:31:32.654Z,3.83
2018-09-15T09:34:00.726Z,4.23
2018-09-15T09:36:28.785Z,4.10
2018-09-15T09:38:56.815Z,4.63
2018-09-15T09:41:24.966Z,3.53
2018-09-15T09:43:53.019Z,3.90
2018-09-15T09:46:21.061Z,4.60
2018-09-15T09:48:49.135Z,3.50
2018-09-15T09:51:17.177Z,2.57
2018-09-15T09:53:45.268Z,2.37
2018-09-15T09:56:13.343Z,2.80
2018-09-15T09:58:41.416Z,2.10
2018-09-15T10:01:10.001Z,2.70
2018-09-15T10:03:38.081Z,2.77
2018-09-15T10:06:06.180Z,2.17
2018-09-15T10:08:34.221Z,1.87
2018-09-15T10:11:02.319Z,2.17
2018-09-15T10:13:30.369Z,2.30
2018-09-15T10:15:58.491Z,2.40
2018-09-15T10:18:26.574Z,1.63
2018-09-15T10:20:54.616Z,2.20
2018-09-15T10:23:22.709Z,2.07
2018-09-15T10:25:50.773Z,1.57
2018-09-15T10:28:18.910Z,1.83
2018-09-15T10:30:46.965Z,2.23
2018-09-15T10:33:15.033Z,1.83
2018-09-15T10:35:43.092Z,2.00
2018-09-15T10:38:11.113Z,1.80
2018-09-15T10:40:39.175Z,1.70
2018-09-15T10:43:07.272Z,1.67
2018-09-15T10:45:35.898Z,1.97
2018-09-15T10:48:04.284Z,1.97
2018-09-15T10:50:32.414Z,2.20
2018-09-15T10:53:00.532Z,1.70
2018-09-15T10:55:29.988Z,2.00
2018-09-15T11:00:32.582Z,2.20
2018-09-15T11:03:00.577Z,1.83
2018-09-15T11:05:30.861Z,2.30
2018-09-15T11:07:59.085Z,1.93
2018-09-15T11:10:27.195Z,1.90
2018-09-15T11:12:55.273Z,1.70
2018-09-15T11:15:23.363Z,2.00
2018-09-15T11:17:51.378Z,2.27
2018-09-15T11:20:19.416Z,2.00
2018-09-15T11:22:47.473Z,2.00
2018-09-15T11:25:15.507Z,2.13
2018-09-15T11:27:43.549Z,2.20
2018-09-15T11:30:11.630Z,2.20
2018-09-15T11:32:39.816Z,2.10
2018-09-15T11:35:07.969Z,2.27
2018-09-15T11:37:36.109Z,2.30
2018-09-15T11:40:04.250Z,1.87
2018-09-15T11:42:32.370Z,1.70
2018-09-15T11:45:00.422Z,1.60
2018-09-15T11:47:28.534Z,2.07
2018-09-15T11:49:56.552Z,2.10
2018-09-15T11:52:31.473Z,1.60
2018-09-15T11:54:59.554Z,1.60
2018-09-15T11:57:27.690Z,1.80
2018-09-15T11:59:56.371Z,1.77
2018-09-15T12:02:24.395Z,1.87
2018-09-15T12:04:52.463Z,2.00
2018-09-15T12:07:20.796Z,1.97
2018-09-15T12:09:48.840Z,2.40
2018-09-15T12:12:16.913Z,2.50
2018-09-15T12:14:44.974Z,2.40
2018-09-15T12:17:13.008Z,2.57
2018-09-15T12:19:41.046Z,2.37
2018-09-15T12:22:09.182Z,2.40
2018-09-15T12:24:38.104Z,2.00
2018-09-15T12:27:07.785Z,2.30
2018-09-15T12:29:36.613Z,3.10
2018-09-15T12:32:05.104Z,2.93
2018-09-15T12:34:33.165Z,2.00
2018-09-15T12:37:01.221Z,2.20
2018-09-15T12:39:29.468Z,1.93
2018-09-15T12:41:57.474Z,1.83
2018-09-15T12:44:25.558Z,2.00
2018-09-15T12:46:56.603Z,2.03
2018-09-15T12:49:25.175Z,2.10
2018-09-15T12:51:53.306Z,1.57
2018-09-15T12:54:21.327Z,2.03
2018-09-15T12:56:49.453Z,1.80
2018-09-15T12:59:17.510Z,1.87
2018-09-15T13:01:45.746Z,1.60
2018-09-15T13:04:14.004Z,1.60
2018-09-15T13:06:42.065Z,1.70
2018-09-15T13:09:10.097Z,1.80
2018-09-15T13:11:38.159Z,1.73
2018-09-15T13:14:06.517Z,1.43
2018-09-15T13:16:34.564Z,1.87
2018-09-15T13:19:02.887Z,2.23
2018-09-15T13:21:30.916Z,1.87
2018-09-15T13:23:58.956Z,1.80
2018-09-15T13:26:27.021Z,1.50
2018-09-15T13:28:55.096Z,1.70
2018-09-15T13:31:23.150Z,2.13
2018-09-15T13:33:51.189Z,1.97
2018-09-15T13:36:19.424Z,1.70
2018-09-15T13:38:47.534Z,1.60
2018-09-15T13:41:15.735Z,4.20
2018-09-15T13:43:45.099Z,6.07
2018-09-15T13:46:13.185Z,4.87
2018-09-15T13:48:41.278Z,4.50
2018-09-15T13:51:09.392Z,1.80
2018-09-15T13:53:37.382Z,2.30
2018-09-15T13:56:05.428Z,1.97
2018-09-15T13:58:33.455Z,2.10
2018-09-15T14:01:01.632Z,2.50
2018-09-15T14:03:29.735Z,2.53
2018-09-15T14:05:57.741Z,2.27
2018-09-15T14:08:25.757Z,2.33
2018-09-15T14:10:53.907Z,2.13
2018-09-15T14:13:21.928Z,2.40
2018-09-15T14:15:50.060Z,3.60
2018-09-15T14:18:18.122Z,3.87
2018-09-15T14:20:46.153Z,2.27
2018-09-15T14:23:14.236Z,5.73
2018-09-15T14:25:43.260Z,2.87
2018-09-15T14:28:11.336Z,3.87
2018-09-15T14:30:39.428Z,3.67
2018-09-15T14:33:07.729Z,2.67
2018-09-15T14:35:35.776Z,3.00
2018-09-15T14:38:03.874Z,2.53
2018-09-15T14:43:15.085Z,3.00
2018-09-15T14:45:43.210Z,3.87
2018-09-15T14:48:11.603Z,2.87
2018-09-15T14:50:39.636Z,2.35
2018-09-15T14:53:07.712Z,2.40
2018-09-15T14:55:35.785Z,2.57
2018-09-15T14:58:03.848Z,2.90
2018-09-15T15:00:32.009Z,2.70
2018-09-15T15:03:00.089Z,2.57
2018-09-15T15:05:28.293Z,2.30
2018-09-15T15:07:56.499Z,2.17
2018-09-15T15:10:24.653Z,2.53
2018-09-15T15:12:52.703Z,2.23
2018-09-15T15:15:20.928Z,2.70
2018-09-15T15:17:48.906Z,2.30
2018-09-15T15:20:16.942Z,2.60
2018-09-15T15:22:45.037Z,2.40
2018-09-15T15:25:13.164Z,2.60
2018-09-15T15:27:41.276Z,2.30
2018-09-15T15:30:09.416Z,2.57
2018-09-15T15:32:37.547Z,2.40
2018-09-15T15:35:05.604Z,2.50
2018-09-15T15:37:33.798Z,2.43
2018-09-15T15:40:02.065Z,2.70
2018-09-15T15:42:31.360Z,2.43
2018-09-15T15:44:59.537Z,2.70
2018-09-15T15:47:27.785Z,2.10
2018-09-15T15:49:55.874Z,2.57
2018-09-15T15:52:23.920Z,3.07
2018-09-15T15:54:52.008Z,2.70
2018-09-15T15:57:20.055Z,2.50
2018-09-15T15:59:48.088Z,3.30
2018-09-15T16:02:16.137Z,2.80
2018-09-15T16:04:44.204Z,2.60
2018-09-15T16:07:12.397Z,3.47
2018-09-15T16:09:40.566Z,2.70
2018-09-15T16:12:08.605Z,3.03
2018-09-15T16:14:36.709Z,3.00
2018-09-15T16:17:04.882Z,3.20
2018-09-15T16:19:33.070Z,2.97
2018-09-15T16:22:01.114Z,3.70
2018-09-15T16:24:29.169Z,3.40
2018-09-15T16:26:57.203Z,3.03
2018-09-15T16:29:25.276Z,3.40
2018-09-15T16:31:53.320Z,3.73
2018-09-15T16:34:21.471Z,4.70
2018-09-15T16:36:49.604Z,3.70
2018-09-15T16:39:17.653Z,3.57
2018-09-15T16:41:45.851Z,3.27
2018-09-15T16:44:13.882Z,3.93
2018-09-15T16:46:41.888Z,3.43
2018-09-15T16:49:09.996Z,3.87
2018-09-15T16:51:38.055Z,3.10
2018-09-15T16:54:06.451Z,3.60
2018-09-15T16:56:34.604Z,3.60
2018-09-15T16:59:02.877Z,4.40
2018-09-15T17:01:31.032Z,3.63
2018-09-15T17:03:59.277Z,3.90
2018-09-15T17:06:27.477Z,3.30
2018-09-15T17:08:55.620Z,3.27
2018-09-15T17:11:23.744Z,3.90
2018-09-15T17:13:51.873Z,3.57
2018-09-15T17:16:20.075Z,3.77
2018-09-15T17:18:48.178Z,3.63
2018-09-15T17:21:16.248Z,3.07
2018-09-15T17:23:44.303Z,3.40
2018-09-15T17:26:12.514Z,3.77
2018-09-15T17:28:40.781Z,3.63
2018-09-15T17:31:08.963Z,3.93
2018-09-15T17:33:37.759Z,3.47
2018-09-15T17:36:06.014Z,3.70
2018-09-15T17:38:34.086Z,3.77
2018-09-15T17:41:02.236Z,3.67
2018-09-15T17:43:30.390Z,3.23
2018-09-15T17:45:58.516Z,3.13
2018-09-15T17:48:26.575Z,3.63
2018-09-15T17:50:55.002Z,3.40
2018-09-15T17:53:23.386Z,3.20
2018-09-15T17:55:51.553Z,3.53
2018-09-15T17:58:19.676Z,3.30
2018-09-15T18:00:47.799Z,3.90
2018-09-15T18:03:15.954Z,3.50
2018-09-15T18:05:44.008Z,3.20
2018-09-15T18:08:12.257Z,3.57
2018-09-15T18:10:40.343Z,3.73
2018-09-15T18:13:08.452Z,3.47
2018-09-15T18:15:36.509Z,3.40
2018-09-15T18:18:04.680Z,3.80
2018-09-15T18:20:33.327Z,3.43
2018-09-15T18:23:01.803Z,3.57
2018-09-15T18:25:29.842Z,3.37
2018-09-15T18:27:58.006Z,3.20
2018-09-15T18:30:26.059Z,3.70
2018-09-15T18:32:54.360Z,3.60
2018-09-15T18:35:22.505Z,4.57
2018-09-15T18:37:50.617Z,4.53
2018-09-15T18:40:18.677Z,4.90
2018-09-15T18:42:46.802Z,4.27
2018-09-15T18:45:14.828Z,5.10
2018-09-15T18:47:42.897Z,7.53
2018-09-15T18:50:11.780Z,9.67
2018-09-15T18:52:39.813Z,10.47
2018-09-15T18:57:46.988Z,9.63
2018-09-15T19:00:15.241Z,11.23
2018-09-15T19:02:43.266Z,10.53
2018-09-15T19:05:11.307Z,8.43
2018-09-15T19:07:39.814Z,6.60
2018-09-15T19:10:08.076Z,8.33
2018-09-15T19:12:36.211Z,7.80
2018-09-15T19:15:04.305Z,7.07
2018-09-15T19:17:32.509Z,6.40
2018-09-15T19:20:00.795Z,4.60
2018-09-15T19:22:28.896Z,5.97
2018-09-15T19:24:56.974Z,5.93
2018-09-15T19:27:24.991Z,5.17
2018-09-15T19:29:53.048Z,4.47
2018-09-15T19:32:21.112Z,3.63
2018-09-15T19:34:49.257Z,3.53
2018-09-15T19:37:17.305Z,4.00
2018-09-15T19:39:45.447Z,4.27
2018-09-15T19:42:14.712Z,3.70
2018-09-15T19:44:42.749Z,3.43
2018-09-15T19:47:10.802Z,3.90
2018-09-15T19:49:38.922Z,3.93
2018-09-15T19:52:07.049Z,4.07
2018-09-15T19:54:35.129Z,4.33
2018-09-15T19:57:03.162Z,4.53
2018-09-15T19:59:31.233Z,4.33
2018-09-15T20:01:59.260Z,4.33
2018-09-15T20:04:27.580Z,4.07
2018-09-15T20:06:55.630Z,4.33
2018-09-15T20:09:23.809Z,4.33
2018-09-15T20:11:51.970Z,5.87
2018-09-15T20:14:20.011Z,4.73
2018-09-15T20:16:46.925Z,5.83
2018-09-15T20:19:13.805Z,5.07
2018-09-15T20:21:40.713Z,5.00
2018-09-15T20:24:08.849Z,5.30
2018-09-15T20:26:36.977Z,4.87
2018-09-15T20:29:05.098Z,5.67
2018-09-15T20:31:33.283Z,4.40
2018-09-15T20:34:01.404Z,4.57
2018-09-15T20:36:29.483Z,4.13
2018-09-15T20:38:57.543Z,6.30
2018-09-15T20:41:25.625Z,6.63
2018-09-15T20:43:53.691Z,4.73
2018-09-15T20:46:21.764Z,4.37
2018-09-15T20:48:49.831Z,4.07
2018-09-15T20:51:17.863Z,3.90
2018-09-15T20:53:45.903Z,4.40
2018-09-15T20:56:13.920Z,3.90
2018-09-15T20:58:42.130Z,5.00
2018-09-15T21:01:10.172Z,4.47
2018-09-15T21:03:38.211Z,4.77
2018-09-15T21:06:06.478Z,4.73
2018-09-15T21:08:34.526Z,5.10
2018-09-15T21:11:02.647Z,6.10
2018-09-15T21:13:30.779Z,6.37
2018-09-15T21:15:58.930Z,7.03
2018-09-15T21:18:26.986Z,8.93
2018-09-15T21:20:55.137Z,9.90
2018-09-15T21:23:23.185Z,8.27
2018-09-15T21:25:51.245Z,8.37
2018-09-15T21:28:19.319Z,7.00
2018-09-15T21:30:47.585Z,7.90
2018-09-15T21:33:15.607Z,8.90
2018-09-15T21:35:43.683Z,8.47
2018-09-15T21:38:11.805Z,8.47
2018-09-15T21:40:39.898Z,8.60
2018-09-15T21:43:08.008Z,9.07
2018-09-15T21:45:36.108Z,8.23
2018-09-15T21:48:04.225Z,8.50
2018-09-15T21:50:32.397Z,5.57
2018-09-15T21:53:00.448Z,8.93
2018-09-15T21:55:28.530Z,9.27
2018-09-15T21:57:56.546Z,7.63
2018-09-15T22:00:24.770Z,10.10
2018-09-15T22:02:52.818Z,9.87
2018-09-15T22:05:20.891Z,9.27
2018-09-15T22:07:48.987Z,9.20
2018-09-15T22:10:17.045Z,9.00
2018-09-15T22:12:45.117Z,9.13
2018-09-15T22:15:13.221Z,8.77
2018-09-15T22:17:41.300Z,9.37
2018-09-15T22:20:09.365Z,9.23
2018-09-15T22:22:37.438Z,9.37
2018-09-15T22:25:05.672Z,8.97
2018-09-15T22:27:33.701Z,9.10
2018-09-15T22:30:01.747Z,9.80
2018-09-15T22:32:29.801Z,9.57
2018-09-15T22:34:57.879Z,9.87
2018-09-15T22:37:25.909Z,9.37
2018-09-15T22:39:54.052Z,9.37
2018-09-15T22:42:22.169Z,9.13
2018-09-15T22:44:50.205Z,8.70
2018-09-15T22:47:18.336Z,8.87
2018-09-15T22:49:46.341Z,6.83
2018-09-15T22:52:14.486Z,8.40
2018-09-15T22:54:42.566Z,9.40
2018-09-15T22:57:10.677Z,8.77
2018-09-15T22:59:38.742Z,9.47
2018-09-15T23:02:06.825Z,8.90
2018-09-15T23:04:34.882Z,8.20
2018-09-15T23:07:02.990Z,9.60
2018-09-15T23:09:31.024Z,9.40
2018-09-15T23:11:59.113Z,9.00
2018-09-15T23:14:27.240Z,9.13
2018-09-15T23:16:55.252Z,5.77
2018-09-15T23:19:23.283Z,5.77
2018-09-15T23:21:51.345Z,8.77
2018-09-15T23:24:19.369Z,9.07
2018-09-15T23:26:47.400Z,8.60
2018-09-15T23:29:15.450Z,9.37
2018-09-15T23:31:43.571Z,9.10
2018-09-15T23:34:11.649Z,9.20
2018-09-15T23:36:39.681Z,7.00
2018-09-15T23:39:08.147Z,5.93
2018-09-15T23:41:36.187Z,6.50
2018-09-15T23:44:04.241Z,9.30
2018-09-15T23:46:39.129Z,9.07
2018-09-15T23:49:07.237Z,9.17
2018-09-15T23:51:35.246Z,9.43
2018-09-15T23:54:03.358Z,9.10
2018-09-15T23:56:32.678Z,7.37
2018-09-15T23:59:00.851Z,9.87
